createdAt,value
2018-02-21T00:00:29.307Z,2.10
2018-02-21T00:02:56.360Z,2.30
2018-02-21T00:05:23.501Z,2.10
2018-02-21T00:07:50.555Z,2.10
2018-02-21T00:10:17.588Z,2.30
2018-02-21T00:12:44.049Z,2.20
2018-02-21T00:15:10.391Z,2.10
2018-02-21T00:17:36.718Z,2.40
2018-02-21T00:20:03.888Z,2.10
2018-02-21T00:22:30.162Z,2.20
2018-02-21T00:24:56.489Z,2.40
2018-02-21T00:27:23.508Z,2.40
2018-02-21T00:29:49.868Z,1.80
2018-02-21T00:32:16.919Z,2.30
2018-02-21T00:34:43.257Z,2.00
2018-02-21T00:37:10.271Z,1.90
2018-02-21T00:39:36.534Z,1.80
2018-02-21T00:42:03.568Z,1.90
2018-02-21T00:44:29.832Z,1.80
2018-02-21T00:46:56.129Z,2.10
2018-02-21T00:49:22.415Z,1.90
2018-02-21T00:51:48.688Z,2.10
2018-02-21T00:54:15.000Z,2.10
2018-02-21T00:56:41.277Z,2.00
2018-02-21T00:59:08.327Z,1.80
2018-02-21T01:01:34.626Z,2.00
2018-02-21T01:04:01.000Z,1.60
2018-02-21T01:06:27.271Z,1.70
2018-02-21T01:08:53.531Z,1.90
2018-02-21T01:11:20.563Z,1.80
2018-02-21T01:13:46.834Z,1.60
2018-02-21T01:16:13.140Z,2.10
2018-02-21T01:18:40.179Z,1.80
2018-02-21T01:21:07.218Z,1.90
2018-02-21T01:23:33.485Z,2.10
2018-02-21T01:25:59.759Z,1.60
2018-02-21T01:28:26.060Z,1.80
2018-02-21T01:30:52.344Z,1.60
2018-02-21T01:33:18.595Z,1.80
2018-02-21T01:35:44.877Z,1.60
2018-02-21T01:38:11.376Z,1.60
2018-02-21T01:40:37.675Z,1.60
2018-02-21T01:43:04.771Z,1.80
2018-02-21T01:45:31.045Z,1.50
2018-02-21T01:47:57.311Z,1.80
2018-02-21T01:50:23.635Z,1.70
2018-02-21T01:52:49.909Z,1.50
2018-02-21T01:55:16.160Z,1.50
2018-02-21T01:57:43.236Z,1.60
2018-02-21T02:00:09.504Z,1.70
2018-02-21T02:02:35.784Z,1.70
2018-02-21T02:05:02.827Z,1.60
2018-02-21T02:07:29.848Z,1.80
2018-02-21T02:09:56.145Z,1.70
2018-02-21T02:12:22.409Z,1.60
2018-02-21T02:14:48.705Z,1.80
2018-02-21T02:17:14.987Z,1.70
2018-02-21T02:19:42.065Z,2.10
2018-02-21T02:22:08.320Z,2.00
2018-02-21T02:24:34.593Z,2.00
2018-02-21T02:27:00.880Z,1.80
2018-02-21T02:29:27.888Z,2.00
2018-02-21T02:31:54.936Z,1.90
2018-02-21T02:34:21.948Z,1.90
2018-02-21T02:36:48.260Z,1.80
2018-02-21T02:39:26.695Z,2.20
2018-02-21T02:41:52.988Z,2.00
2018-02-21T02:44:19.248Z,1.90
2018-02-21T02:46:45.532Z,2.00
2018-02-21T02:49:11.828Z,1.90
2018-02-21T02:51:38.863Z,2.00
2018-02-21T02:54:05.155Z,1.90
2018-02-21T02:56:31.452Z,2.00
2018-02-21T02:58:58.496Z,2.00
2018-02-21T03:01:25.544Z,1.80
2018-02-21T03:03:51.857Z,1.80
2018-02-21T03:06:18.139Z,1.80
2018-02-21T03:08:44.416Z,1.90
2018-02-21T03:11:10.701Z,1.80
2018-02-21T03:13:36.992Z,2.10
2018-02-21T03:16:04.008Z,2.10
2018-02-21T03:18:30.310Z,2.20
2018-02-21T03:20:56.587Z,2.30
2018-02-21T03:23:22.854Z,2.20
2018-02-21T03:25:49.192Z,1.80
2018-02-21T03:28:15.489Z,1.80
2018-02-21T03:30:42.527Z,2.10
2018-02-21T03:33:08.879Z,2.20
2018-02-21T03:35:35.888Z,2.00
2018-02-21T03:38:02.195Z,1.80
2018-02-21T03:40:28.467Z,2.30
2018-02-21T03:42:55.479Z,2.40
2018-02-21T03:45:21.792Z,2.40
2018-02-21T03:47:48.071Z,2.60
2018-02-21T03:50:14.375Z,2.60
2018-02-21T03:52:40.688Z,2.10
2018-02-21T03:55:06.963Z,2.50
2018-02-21T03:57:33.235Z,2.20
2018-02-21T03:59:59.521Z,2.30
2018-02-21T04:02:25.805Z,2.10
2018-02-21T04:04:52.065Z,2.10
2018-02-21T04:07:18.345Z,2.20
2018-02-21T04:09:44.662Z,2.20
2018-02-21T04:12:10.984Z,2.50
2018-02-21T04:14:38.031Z,2.60
2018-02-21T04:17:04.288Z,2.40
2018-02-21T04:19:30.564Z,2.30
2018-02-21T04:21:56.839Z,2.50
2018-02-21T04:24:23.894Z,2.60
2018-02-21T04:26:50.224Z,2.30
2018-02-21T04:29:16.483Z,2.50
2018-02-21T04:31:42.793Z,2.50
2018-02-21T04:34:09.108Z,2.20
2018-02-21T04:36:36.153Z,2.50
2018-02-21T04:39:03.224Z,2.30
2018-02-21T04:41:29.550Z,2.30
2018-02-21T04:43:55.826Z,2.40
2018-02-21T04:46:22.135Z,2.60
2018-02-21T04:48:48.440Z,2.60
2018-02-21T04:51:14.700Z,2.50
2018-02-21T04:53:40.988Z,2.80
2018-02-21T04:59:19.949Z,2.90
2018-02-21T05:01:46.267Z,2.80
2018-02-21T05:04:12.535Z,2.50
2018-02-21T05:06:38.877Z,3.00
2018-02-21T05:09:05.230Z,2.80
2018-02-21T05:11:31.499Z,3.00
2018-02-21T05:13:57.795Z,2.90
2018-02-21T05:16:24.811Z,2.50
2018-02-21T05:18:51.107Z,2.60
2018-02-21T05:21:17.384Z,2.80
2018-02-21T05:23:43.690Z,3.00
2018-02-21T05:26:09.975Z,2.90
2018-02-21T05:28:36.988Z,3.00
2018-02-21T05:31:03.334Z,2.50
2018-02-21T05:33:29.671Z,2.90
2018-02-21T05:35:56.739Z,2.90
2018-02-21T05:38:23.775Z,2.80
2018-02-21T05:40:50.793Z,2.80
2018-02-21T05:43:17.064Z,2.90
2018-02-21T05:45:43.368Z,2.90
2018-02-21T05:48:10.413Z,3.00
2018-02-21T05:50:36.728Z,3.00
2018-02-21T05:53:03.017Z,2.60
2018-02-21T05:55:29.349Z,2.90
2018-02-21T05:57:55.673Z,2.60
2018-02-21T06:00:21.995Z,2.60
2018-02-21T06:02:48.317Z,2.70
2018-02-21T06:05:14.627Z,2.80
2018-02-21T06:07:40.904Z,2.60
2018-02-21T06:10:07.234Z,2.50
2018-02-21T06:12:33.518Z,2.40
2018-02-21T06:14:59.794Z,2.50
2018-02-21T06:17:26.158Z,2.80
2018-02-21T06:19:52.459Z,2.60
2018-02-21T06:22:18.724Z,2.70
2018-02-21T06:24:45.056Z,2.40
2018-02-21T06:27:11.352Z,2.40
2018-02-21T06:29:37.989Z,2.40
2018-02-21T06:32:04.309Z,2.40
2018-02-21T06:34:30.596Z,2.40
2018-02-21T06:36:56.908Z,2.30
2018-02-21T06:39:23.216Z,2.60
2018-02-21T06:41:49.520Z,2.60
2018-02-21T06:44:15.823Z,2.40
2018-02-21T06:46:42.847Z,2.60
2018-02-21T06:49:09.175Z,2.50
2018-02-21T06:51:36.297Z,2.60
2018-02-21T06:54:02.624Z,2.70
2018-02-21T06:56:28.915Z,2.70
2018-02-21T06:58:55.204Z,2.70
2018-02-21T07:01:21.499Z,2.80
2018-02-21T07:03:48.508Z,2.80
2018-02-21T07:06:14.839Z,2.70
2018-02-21T07:08:41.120Z,2.90
2018-02-21T07:11:07.447Z,2.90
2018-02-21T07:13:33.731Z,3.40
2018-02-21T07:16:00.020Z,3.60
2018-02-21T07:18:26.342Z,3.40
2018-02-21T07:20:52.688Z,4.10
2018-02-21T07:23:18.999Z,4.30
2018-02-21T07:25:45.344Z,4.80
2018-02-21T07:28:11.652Z,4.70
2018-02-21T07:30:37.980Z,4.60
2018-02-21T07:33:04.259Z,4.80
2018-02-21T07:35:30.551Z,4.80
2018-02-21T07:37:56.871Z,5.10
2018-02-21T07:40:23.150Z,5.00
2018-02-21T07:42:49.688Z,5.30
2018-02-21T07:45:15.991Z,5.30
2018-02-21T07:47:42.304Z,5.90
2018-02-21T07:50:08.614Z,6.90
2018-02-21T07:52:34.912Z,7.20
2018-02-21T07:55:01.233Z,7.00
2018-02-21T07:57:27.534Z,7.20
2018-02-21T07:59:53.810Z,7.40
2018-02-21T08:02:20.143Z,8.00
2018-02-21T08:04:47.213Z,8.60
2018-02-21T08:07:13.787Z,8.20
2018-02-21T08:09:40.140Z,8.30
2018-02-21T08:12:06.444Z,8.90
2018-02-21T08:14:32.747Z,8.90
2018-02-21T08:16:59.766Z,7.30
2018-02-21T08:19:26.068Z,7.10
2018-02-21T08:21:52.348Z,7.30
2018-02-21T08:24:19.423Z,7.80
2018-02-21T08:26:45.728Z,7.60
2018-02-21T08:29:12.776Z,7.30
2018-02-21T08:31:39.849Z,8.40
2018-02-21T08:34:06.123Z,8.40
2018-02-21T08:36:32.429Z,9.80
2018-02-21T08:38:58.740Z,10.20
2018-02-21T08:41:25.048Z,10.90
2018-02-21T08:43:52.125Z,11.30
2018-02-21T08:46:18.456Z,11.20
2018-02-21T08:48:44.783Z,10.80
2018-02-21T08:51:11.138Z,9.40
2018-02-21T08:53:37.441Z,8.20
2018-02-21T08:56:03.768Z,7.90
2018-02-21T08:58:30.071Z,8.10
2018-02-21T09:00:56.436Z,8.00
2018-02-21T09:03:22.728Z,7.70
2018-02-21T09:05:49.065Z,7.90
2018-02-21T09:08:16.140Z,7.40
2018-02-21T09:10:42.423Z,7.40
2018-02-21T09:13:09.472Z,7.20
2018-02-21T09:15:35.788Z,7.20
2018-02-21T09:18:02.104Z,7.70
2018-02-21T09:20:28.443Z,8.10
2018-02-21T09:22:54.712Z,8.60
2018-02-21T09:25:21.762Z,7.50
2018-02-21T09:27:48.067Z,7.50
2018-02-21T09:30:14.375Z,7.50
2018-02-21T09:32:40.711Z,7.10
2018-02-21T09:35:07.007Z,6.80
2018-02-21T09:37:34.051Z,7.40
2018-02-21T09:40:00.359Z,7.40
2018-02-21T09:42:26.685Z,8.60
2018-02-21T09:44:53.052Z,8.50
2018-02-21T09:47:19.352Z,8.10
2018-02-21T09:49:46.017Z,8.30
2018-02-21T09:52:12.324Z,8.10
2018-02-21T09:54:38.608Z,7.60
2018-02-21T09:57:04.964Z,8.50
2018-02-21T09:59:31.292Z,9.10
2018-02-21T10:01:57.542Z,8.80
2018-02-21T10:04:23.824Z,8.30
2018-02-21T10:06:50.104Z,8.40
2018-02-21T10:09:16.418Z,7.70
2018-02-21T10:11:42.681Z,9.00
2018-02-21T10:14:09.709Z,8.80
2018-02-21T10:16:35.995Z,9.00
2018-02-21T10:19:02.326Z,8.70
2018-02-21T10:21:28.643Z,8.40
2018-02-21T10:23:54.935Z,8.30
2018-02-21T10:26:21.315Z,9.00
2018-02-21T10:28:47.628Z,9.20
2018-02-21T10:31:14.679Z,9.20
2018-02-21T10:33:40.991Z,9.40
2018-02-21T10:36:08.018Z,8.90
2018-02-21T10:38:34.396Z,8.90
2018-02-21T10:41:01.442Z,10.70
2018-02-21T10:43:27.733Z,10.60
2018-02-21T10:45:54.811Z,9.90
2018-02-21T10:48:21.087Z,10.30
2018-02-21T10:50:47.383Z,10.50
2018-02-21T10:53:13.744Z,11.80
2018-02-21T10:55:40.042Z,12.20
2018-02-21T10:58:06.385Z,12.80
2018-02-21T11:00:38.907Z,11.20
2018-02-21T11:03:05.992Z,13.40
2018-02-21T11:05:32.289Z,13.40
2018-02-21T11:07:58.648Z,14.60
2018-02-21T11:10:24.928Z,13.70
2018-02-21T11:12:51.252Z,14.00
2018-02-21T11:15:17.611Z,13.70
2018-02-21T11:17:43.873Z,14.30
2018-02-21T11:20:10.177Z,13.20
2018-02-21T11:22:36.472Z,13.80
2018-02-21T11:25:02.772Z,12.30
2018-02-21T11:27:29.062Z,12.10
2018-02-21T11:29:55.345Z,11.70
2018-02-21T11:32:21.624Z,12.30
2018-02-21T11:34:47.920Z,12.90
2018-02-21T11:37:14.183Z,13.10
2018-02-21T11:39:41.251Z,14.60
2018-02-21T11:42:08.271Z,14.70
2018-02-21T11:44:34.651Z,14.90
2018-02-21T11:47:00.937Z,15.00
2018-02-21T11:49:27.204Z,14.20
2018-02-21T11:51:53.532Z,13.90
2018-02-21T11:54:19.829Z,13.40
2018-02-21T11:56:46.110Z,12.70
2018-02-21T11:59:13.136Z,12.50
2018-02-21T12:01:39.395Z,12.70
2018-02-21T12:04:05.671Z,13.80
2018-02-21T12:06:31.972Z,14.30
2018-02-21T12:08:58.263Z,14.70
2018-02-21T12:11:24.560Z,14.70
2018-02-21T12:13:51.609Z,12.40
2018-02-21T12:16:17.899Z,12.20
2018-02-21T12:18:44.169Z,10.50
2018-02-21T12:21:11.224Z,11.40
2018-02-21T12:23:38.266Z,12.50
2018-02-21T12:26:05.319Z,13.10
2018-02-21T12:28:31.893Z,12.90
2018-02-21T12:30:58.207Z,13.20
2018-02-21T12:33:24.559Z,12.80
2018-02-21T12:35:50.858Z,13.00
2018-02-21T12:38:17.884Z,13.10
2018-02-21T12:40:50.212Z,13.10
2018-02-21T12:43:16.528Z,11.30
2018-02-21T12:45:42.815Z,12.20
2018-02-21T12:48:10.216Z,13.00
2018-02-21T12:50:36.510Z,13.20
2018-02-21T12:53:03.560Z,13.50
2018-02-21T12:55:30.639Z,13.40
2018-02-21T12:57:57.624Z,13.00
2018-02-21T13:00:23.948Z,13.40
2018-02-21T13:02:50.220Z,11.50
2018-02-21T13:05:16.567Z,11.10
2018-02-21T13:07:42.905Z,12.70
2018-02-21T13:10:09.205Z,13.70
2018-02-21T13:12:36.264Z,12.20
2018-02-21T13:15:02.605Z,12.10
2018-02-21T13:17:28.902Z,13.00
2018-02-21T13:19:55.247Z,12.60
2018-02-21T13:22:22.330Z,14.20
2018-02-21T13:24:48.639Z,13.80
2018-02-21T13:27:15.685Z,14.20
2018-02-21T13:29:42.753Z,12.10
2018-02-21T13:32:09.092Z,12.20
2018-02-21T13:34:35.403Z,12.20
2018-02-21T13:37:01.751Z,13.00
2018-02-21T13:39:28.055Z,13.60
2018-02-21T13:41:55.099Z,13.80
2018-02-21T13:44:22.199Z,13.90
2018-02-21T13:46:48.508Z,13.50
2018-02-21T13:49:14.866Z,13.00
2018-02-21T13:51:41.335Z,14.30
2018-02-21T13:54:07.704Z,13.30
2018-02-21T13:56:33.995Z,10.80
2018-02-21T13:59:01.115Z,11.90
2018-02-21T14:01:28.192Z,12.60
2018-02-21T14:03:55.206Z,12.40
2018-02-21T14:06:21.514Z,12.20
2018-02-21T14:08:47.788Z,13.00
2018-02-21T14:11:14.089Z,13.40
2018-02-21T14:13:40.391Z,13.00
2018-02-21T14:16:06.753Z,13.80
2018-02-21T14:18:33.073Z,13.80
2018-02-21T14:20:59.355Z,13.50
2018-02-21T14:23:26.379Z,12.80
2018-02-21T14:25:52.675Z,12.80
2018-02-21T14:28:18.954Z,13.10
2018-02-21T14:30:45.460Z,13.50
2018-02-21T14:33:11.744Z,13.20
2018-02-21T14:35:38.760Z,14.20
2018-02-21T14:38:05.048Z,14.20
2018-02-21T14:40:31.331Z,14.20
2018-02-21T14:42:58.387Z,14.20
2018-02-21T14:45:24.702Z,14.00
2018-02-21T14:47:50.987Z,14.00
2018-02-21T14:50:17.308Z,14.60
2018-02-21T14:52:43.604Z,13.50
2018-02-21T14:55:09.939Z,13.10
2018-02-21T14:57:36.960Z,11.10
2018-02-21T15:00:03.296Z,11.00
2018-02-21T15:02:29.579Z,10.00
2018-02-21T15:04:55.951Z,9.90
2018-02-21T15:07:22.251Z,9.80
2018-02-21T15:09:48.537Z,9.50
2018-02-21T15:12:15.566Z,8.90
2018-02-21T15:14:41.876Z,8.50
2018-02-21T15:17:08.147Z,8.80
2018-02-21T15:19:35.268Z,9.20
2018-02-21T15:22:02.372Z,9.50
2018-02-21T15:24:28.673Z,9.70
2018-02-21T15:26:54.964Z,9.40
2018-02-21T15:29:21.284Z,9.10
2018-02-21T15:31:47.607Z,9.30
2018-02-21T15:34:13.943Z,10.50
2018-02-21T15:36:40.192Z,9.50
2018-02-21T15:39:06.491Z,8.80
2018-02-21T15:41:32.756Z,8.60
2018-02-21T15:43:59.044Z,8.90
2018-02-21T15:46:25.308Z,9.10
2018-02-21T15:48:51.620Z,9.50
2018-02-21T15:51:17.899Z,9.40
2018-02-21T15:53:44.195Z,9.00
2018-02-21T15:56:10.480Z,8.20
2018-02-21T15:58:36.789Z,8.30
2018-02-21T16:01:03.091Z,7.90
2018-02-21T16:03:29.360Z,7.50
2018-02-21T16:05:56.426Z,7.60
2018-02-21T16:08:22.766Z,7.60
2018-02-21T16:10:49.028Z,7.90
2018-02-21T16:13:15.299Z,7.40
2018-02-21T16:15:42.340Z,7.40
2018-02-21T16:18:08.723Z,7.40
2018-02-21T16:20:35.044Z,7.10
2018-02-21T16:23:01.370Z,7.30
2018-02-21T16:25:27.732Z,6.60
2018-02-21T16:27:54.035Z,6.70
2018-02-21T16:30:20.318Z,6.40
2018-02-21T16:32:46.628Z,6.60
2018-02-21T16:35:12.891Z,6.50
2018-02-21T16:37:39.159Z,6.20
2018-02-21T16:40:05.459Z,6.50
2018-02-21T16:42:32.491Z,6.40
2018-02-21T16:44:59.612Z,6.50
2018-02-21T16:47:25.914Z,6.30
2018-02-21T16:49:52.199Z,6.00
2018-02-21T16:52:19.332Z,6.00
2018-02-21T16:54:45.648Z,6.00
2018-02-21T16:57:11.943Z,6.00
2018-02-21T16:59:38.259Z,5.80
2018-02-21T17:02:05.307Z,5.90
2018-02-21T17:04:32.332Z,5.90
2018-02-21T17:06:58.631Z,5.80
2018-02-21T17:09:24.931Z,5.80
2018-02-21T17:11:51.195Z,5.40
2018-02-21T17:14:17.808Z,5.50
2018-02-21T17:16:44.123Z,5.70
2018-02-21T17:19:10.455Z,5.60
2018-02-21T17:21:36.784Z,5.50
2018-02-21T17:24:03.060Z,5.20
2018-02-21T17:26:29.379Z,5.70
2018-02-21T17:28:55.652Z,5.60
2018-02-21T17:31:22.685Z,5.60
2018-02-21T17:33:49.056Z,5.10
2018-02-21T17:36:15.400Z,5.40
2018-02-21T17:38:42.012Z,5.40
2018-02-21T17:41:14.431Z,5.30
2018-02-21T17:43:40.728Z,5.10
2018-02-21T17:46:07.017Z,5.50
2018-02-21T17:48:33.772Z,5.10
2018-02-21T17:51:00.830Z,5.50
2018-02-21T17:53:27.123Z,5.30
2018-02-21T17:55:53.428Z,5.50
2018-02-21T17:58:19.735Z,5.30
2018-02-21T18:00:46.018Z,5.40
2018-02-21T18:03:12.353Z,5.60
2018-02-21T18:05:38.608Z,5.40
2018-02-21T18:08:05.679Z,5.30
2018-02-21T18:10:31.976Z,5.30
2018-02-21T18:12:58.245Z,5.30
2018-02-21T18:15:24.626Z,5.30
2018-02-21T18:17:51.035Z,5.10
2018-02-21T18:20:17.341Z,5.00
2018-02-21T18:22:43.637Z,5.10
2018-02-21T18:25:10.132Z,5.00
2018-02-21T18:27:36.473Z,5.30
2018-02-21T18:30:03.206Z,5.20
2018-02-21T18:32:29.497Z,5.20
2018-02-21T18:34:55.821Z,4.80
2018-02-21T18:37:22.173Z,4.80
2018-02-21T18:39:48.460Z,4.90
2018-02-21T18:42:15.599Z,4.90
2018-02-21T18:44:41.896Z,4.90
2018-02-21T18:47:08.180Z,5.00
2018-02-21T18:49:34.514Z,5.00
2018-02-21T18:52:01.536Z,4.50
2018-02-21T18:54:27.833Z,4.50
2018-02-21T18:56:54.153Z,4.70
2018-02-21T18:59:20.444Z,4.50
2018-02-21T19:01:47.516Z,4.50
2018-02-21T19:04:13.827Z,4.50
2018-02-21T19:06:40.126Z,4.70
2018-02-21T19:09:06.420Z,4.50
2018-02-21T19:11:32.716Z,4.60
2018-02-21T19:13:59.781Z,4.40
2018-02-21T19:16:26.064Z,4.60
2018-02-21T19:18:52.343Z,4.60
2018-02-21T19:21:19.396Z,4.20
2018-02-21T19:23:45.704Z,4.70
2018-02-21T19:26:12.763Z,4.20
2018-02-21T19:28:39.790Z,4.20
2018-02-21T19:31:06.100Z,4.20
2018-02-21T19:33:32.403Z,4.40
2018-02-21T19:35:58.687Z,4.40
2018-02-21T19:38:25.728Z,3.90
2018-02-21T19:40:52.972Z,3.90
2018-02-21T19:43:19.300Z,3.90
2018-02-21T19:45:45.587Z,4.20
2018-02-21T19:48:11.875Z,4.30
2018-02-21T19:50:38.445Z,4.10
2018-02-21T19:53:04.755Z,4.10
2018-02-21T19:55:31.776Z,3.90
2018-02-21T19:57:58.063Z,3.90
2018-02-21T20:00:24.344Z,4.10
2018-02-21T20:02:50.643Z,3.90
2018-02-21T20:05:16.936Z,4.00
2018-02-21T20:07:43.220Z,4.00
2018-02-21T20:10:09.530Z,4.10
2018-02-21T20:12:35.830Z,3.90
2018-02-21T20:15:02.522Z,3.70
2018-02-21T20:17:28.858Z,4.10
2018-02-21T20:19:55.163Z,3.70
2018-02-21T20:22:21.491Z,3.90
2018-02-21T20:24:47.765Z,3.70
2018-02-21T20:27:14.871Z,3.60
2018-02-21T20:29:41.144Z,3.70
2018-02-21T20:32:07.430Z,3.80
2018-02-21T20:34:33.728Z,3.90
2018-02-21T20:37:00.015Z,3.60
2018-02-21T20:39:26.632Z,3.90
2018-02-21T20:41:52.919Z,3.40
2018-02-21T20:44:19.946Z,3.90
2018-02-21T20:46:46.274Z,3.50
2018-02-21T20:49:12.545Z,3.50
2018-02-21T20:51:38.856Z,3.30
2018-02-21T20:54:06.188Z,3.80
2018-02-21T20:56:32.456Z,3.40
2018-02-21T20:58:58.823Z,3.80
2018-02-21T21:01:25.109Z,3.40
2018-02-21T21:03:51.494Z,3.60
2018-02-21T21:06:17.805Z,3.50
2018-02-21T21:08:44.097Z,3.60
2018-02-21T21:11:10.394Z,3.20
2018-02-21T21:13:38.495Z,3.10
2018-02-21T21:16:04.843Z,3.40
2018-02-21T21:18:31.187Z,3.40
2018-02-21T21:20:57.511Z,3.20
2018-02-21T21:23:23.871Z,3.60
2018-02-21T21:25:50.172Z,3.10
2018-02-21T21:28:16.480Z,3.20
2018-02-21T21:30:42.802Z,3.30
2018-02-21T21:33:09.147Z,3.30
2018-02-21T21:35:35.471Z,3.00
2018-02-21T21:38:01.815Z,3.20
2018-02-21T21:40:28.127Z,3.40
2018-02-21T21:42:55.155Z,3.20
2018-02-21T21:45:21.433Z,3.10
2018-02-21T21:47:47.777Z,3.40
2018-02-21T21:50:14.059Z,3.10
2018-02-21T21:52:40.428Z,2.90
2018-02-21T21:55:06.743Z,3.10
2018-02-21T21:57:33.008Z,2.90
2018-02-21T21:59:59.337Z,2.90
2018-02-21T22:02:25.624Z,3.10
2018-02-21T22:04:51.997Z,2.80
2018-02-21T22:07:18.259Z,3.00
2018-02-21T22:09:44.534Z,2.90
2018-02-21T22:12:10.823Z,3.00
2018-02-21T22:14:37.115Z,3.10
2018-02-21T22:17:03.508Z,2.90
2018-02-21T22:19:30.527Z,2.80
2018-02-21T22:21:56.803Z,2.70
2018-02-21T22:24:23.087Z,2.90
2018-02-21T22:26:49.667Z,2.60
2018-02-21T22:29:15.999Z,2.60
2018-02-21T22:31:42.335Z,2.60
2018-02-21T22:34:08.669Z,2.80
2018-02-21T22:36:34.949Z,2.60
2018-02-21T22:39:01.243Z,2.70
2018-02-21T22:41:27.552Z,2.70
2018-02-21T22:43:53.859Z,2.50
2018-02-21T22:46:20.915Z,2.80
2018-02-21T22:48:47.215Z,2.80
2018-02-21T22:51:13.486Z,2.30
2018-02-21T22:53:39.787Z,2.60
2018-02-21T22:56:06.065Z,2.70
2018-02-21T22:58:32.347Z,2.40
2018-02-21T23:00:59.383Z,2.10
2018-02-21T23:03:25.647Z,2.20
2018-02-21T23:05:52.219Z,2.40
2018-02-21T23:08:18.506Z,2.50
2018-02-21T23:10:45.580Z,2.50
2018-02-21T23:13:11.882Z,2.30
2018-02-21T23:15:38.890Z,2.40
2018-02-21T23:18:06.034Z,2.40
2018-02-21T23:20:32.299Z,2.10
2018-02-21T23:22:59.312Z,2.60
2018-02-21T23:25:25.624Z,2.20
2018-02-21T23:27:51.898Z,2.30
2018-02-21T23:30:18.194Z,2.30
2018-02-21T23:32:44.473Z,2.10
2018-02-21T23:35:11.489Z,2.10
2018-02-21T23:37:37.776Z,2.10
2018-02-21T23:40:04.054Z,2.20
2018-02-21T23:42:30.388Z,2.30
2018-02-21T23:44:57.448Z,2.10
2018-02-21T23:47:23.871Z,2.10
2018-02-21T23:49:50.228Z,2.30
2018-02-21T23:52:16.504Z,2.20
2018-02-21T23:54:42.823Z,2.20
2018-02-21T23:57:09.109Z,2.30
2018-02-21T23:59:35.360Z,2.20
